• Join FlightAware (Why Join?)
  • Login
  • US Flag 
03:54AM EDT


 

Airport Tracker/Info


-or-


 

Live Flight TrackerFlight Track Log ✈ UAL1552 ✈ 15-May-2012 ✈ KIAH - KPDX

Flight Track Log - Related Links

Times and Time Zones

All times are in EDT time to prevent confusion due to time zone crossing. See the UAL1552 flight status page for this flight to view local times or setup timezone preferences in your user account.

Time Position Orientation Groundspeed Altitude Reporting Facility
EDT Latitude Longitude Course Direction KTS MPH feet Rate Location/Type
04:05PM 29.9199 -95.3524 249° West 224 258 1,800  Level FlightAware ADS-B
04:05PM 29.9187 -95.3561 258° West 228 262 1,800 960 Level FlightAware ADS-B
04:05PM 29.9180 -95.3600 263° West 233 268 1,900 1,980 Climbing FlightAware ADS-B
04:05PM 29.9176 -95.3636 270° West 234 269 2,000 1,980 Climbing FlightAware ADS-B
04:06PM 29.9176 -95.3675 279° West 235 270 2,100 2,220 Climbing FlightAware ADS-B
04:06PM 29.9184 -95.3733 286° West 236 272 2,300 2,220 Climbing FlightAware ADS-B
04:06PM 29.9194 -95.3772 295° West 238 274 2,400 1,980 Climbing FlightAware ADS-B
04:06PM 29.9208 -95.3807 300° West 238 274 2,500 2,520 Climbing FlightAware ADS-B
04:06PM 29.9231 -95.3853 309° West 240 276 2,700 2,520 Climbing FlightAware ADS-B
04:06PM 29.9253 -95.3884 316° Northwest 242 278 2,800 2,520 Climbing FlightAware ADS-B
04:06PM 29.9286 -95.3921 325° Northwest 242 278 3,000 2,640 Climbing FlightAware ADS-B
04:06PM 29.9329 -95.3956 332° Northwest 242 278 3,200 2,220 Climbing FlightAware ADS-B
04:06PM 29.9363 -95.3977 338° Northwest 244 281 3,300 960 Climbing FlightAware ADS-B
04:06PM 29.9396 -95.3992 343° North 248 285 3,300 840 Level FlightAware ADS-B
04:06PM 29.9431 -95.4004 349° North 251 289 3,400 1,500 Climbing FlightAware ADS-B
04:06PM 29.9479 -95.4015 353° North 256 295 3,500 1,500 Climbing FlightAware ADS-B
04:06PM 29.9526 -95.4022 353° North 261 300 3,600 1,620 Climbing FlightAware ADS-B
04:07PM 29.9713 -95.4047 353° North 275 316 4,000 2,280 Climbing FlightAware ADS-B
04:07PM 29.9858 -95.4068 353° North 274 315 4,600 3,060 Climbing FlightAware ADS-B
04:07PM 30.0047 -95.4094 353° North 273 314 5,400 3,180 Climbing FlightAware ADS-B
04:07PM 30.0182 -95.4112 355° North 272 313 6,000 3,420 Climbing FlightAware ADS-B
04:07PM 30.0369 -95.4132 355° North 272 313 6,900 3,360 Climbing FlightAware ADS-B
04:08PM 30.0497 -95.4146 356° North 272 313 7,400 3,000 Climbing FlightAware ADS-B
04:08PM 30.0569 -95.4152 356° North 272 313 7,700 2,520 Climbing FlightAware ADS-B
04:08PM 30.0765 -95.4169 356° North 278 320 8,300 2,580 Climbing FlightAware ADS-B
04:08PM 30.0963 -95.4186 356° North 283 326 9,000 2,640 Climbing FlightAware ADS-B
04:08PM 30.1125 -95.4200 357° North 289 333 9,500 2,280 Climbing FlightAware ADS-B
04:09PM 30.1312 -95.4213 357° North 295 339 10,000 2,520 Climbing FlightAware ADS-B
04:09PM 30.1733 -95.4240 356° North 299 344 11,400 2,520 Climbing FlightAware ADS-B
04:09PM 30.2029 -95.4263 349° North 305 351 12,200 2,160 Climbing FlightAware ADS-B
04:10PM 30.2152 -95.4290 342° North 306 352 12,500 2,400 Climbing FlightAware ADS-B
04:10PM 30.2233 -95.4320 339° North 306 352 12,800 2,400 Climbing FlightAware ADS-B
04:10PM 30.2356 -95.4374 334° Northwest 309 356 13,100 1,980 Climbing FlightAware ADS-B
04:10PM 30.2472 -95.4439 329° Northwest 309 356 13,400 2,100 Climbing FlightAware ADS-B
04:11PM 30.2845 -95.4703 328° Northwest 314 361 14,500 2,340 Climbing FlightAware ADS-B
04:11PM 30.3132 -95.4910 328° Northwest 313 360 15,500 1,680 Climbing FlightAware ADS-B
04:11PM 30.3554 -95.5217 328° Northwest 333 383 16,100 900 Climbing FlightAware ADS-B
04:12PM 30.3970 -95.5518 328° Northwest 367 422 16,500 1,080 Climbing FlightAware ADS-B
04:12PM 30.4421 -95.5844 328° Northwest 382 440 17,200 1,560 Climbing FlightAware ADS-B
04:13PM 30.4877 -95.6175 328° Northwest 391 450 18,100 1,620 Climbing FlightAware ADS-B
04:13PM 30.5090 -95.6329 329° Northwest 393 452 18,500 1,800 Climbing FlightAware ADS-B
04:13PM 30.5283 -95.6466 330° Northwest 395 455 18,900 3,000 Climbing FlightAware ADS-B
04:13PM 30.5351 -95.6511 332° Northwest 396 456 19,100 2,220 Climbing FlightAware ADS-B
04:14PM 30.5412 -95.6548 334° Northwest 397 457 19,200 1,500 Climbing FlightAware ADS-B
04:14PM 30.5476 -95.6584 335° Northwest 397 457 19,300 1,980 Climbing FlightAware ADS-B
04:14PM 30.5570 -95.6635 335° Northwest 398 458 19,500 1,800 Climbing FlightAware ADS-B
04:14PM 30.6080 -95.6908 335° Northwest 402 463 20,400 1,620 Climbing FlightAware ADS-B
04:15PM 30.6602 -95.7187 335° Northwest 411 473 21,200 1,560 Climbing FlightAware ADS-B
04:15PM 30.7126 -95.7467 335° Northwest 417 480 22,000 1,560 Climbing FlightAware ADS-B
04:16PM 30.7654 -95.7750 335° Northwest 420 483 22,800 1,560 Climbing FlightAware ADS-B
04:16PM 30.8304 -95.8098 335° Northwest 423 487 23,800 1,500 Climbing FlightAware ADS-B
04:17PM 30.8862 -95.8398 335° Northwest 427 491 24,500 1,320 Climbing FlightAware ADS-B
04:17PM 30.9406 -95.8691 335° Northwest 432 497 25,200 1,200 Climbing FlightAware ADS-B
04:18PM 30.9984 -95.9003 335° Northwest 437 503 25,800 1,020 Climbing FlightAware ADS-B
04:18PM 31.0541 -95.9303 335° Northwest 442 509 26,300 1,080 Climbing FlightAware ADS-B
04:19PM 31.1116 -95.9613 339° North 448 516 26,900 1,080 Climbing FlightAware ADS-B
04:19PM 31.1488 -95.9777 342° North 451 519 27,200 1,020 Climbing FlightAware ADS-B
04:20PM 31.2235 -96.0065 342° North 455 524 27,900 1,020 Climbing FlightAware ADS-B
04:21PM 31.3245 -96.0457 342° North 459 528 28,700 900 Climbing FlightAware ADS-B
04:21PM 31.4128 -96.0801 342° North 469 540 29,300 840 Climbing FlightAware ADS-B
04:22PM 31.4766 -96.1050 341° North 469 540 29,800 1,140 Climbing FlightAware ADS-B
04:22PM 31.5426 -96.1310 342° North 468 539 30,500 1,020 Climbing FlightAware ADS-B
04:23PM 31.6487 -96.1724 342° North 468 539 31,300 960 Climbing FlightAware ADS-B
04:24PM 31.7582 -96.2151 342° North 468 539 32,200 960 Climbing FlightAware ADS-B
04:25PM 31.8334 -96.2446 342° North 467 537 32,800 900 Climbing FlightAware ADS-B
04:26PM 31.9792 -96.3019 341° North 466 536 33,900 600 Climbing FlightAware ADS-B
04:27PM 32.0606 -96.3347 330° Northwest 464 534 34,000  Climbing Fort Worth Center
04:29PM 32.2762 -96.4826 317° Northwest 451 519 34,000  Level FlightAware ADS-B
04:30PM 32.3672 -96.5844 311° West 451 519 34,000  Level Fort Worth Center
04:31PM 32.4639 -96.7142 307° West 440 506 34,000  Level Fort Worth Center
04:32PM 32.5356 -96.8269 308° West 440 506 34,000  Level Fort Worth Center
04:33PM 32.6111 -96.9422 306° West 440 506 34,000  Level Fort Worth Center
04:34PM 32.6953 -97.0803 307° West 433 498 34,000  Level Fort Worth Center
04:35PM 32.7831 -97.2181 306° West 433 498 34,000  Level Fort Worth Center
04:36PM 32.8564 -97.3392 308° West 439 505 34,000  Level Fort Worth Center
04:37PM 32.9397 -97.4678 308° West 444 511 34,000  Level Fort Worth Center
04:38PM 33.0128 -97.5794 308° West 437 503 34,000  Level Fort Worth Center
04:39PM 33.0878 -97.6961 307° West 437 503 34,000  Level Fort Worth Center
04:41PM 33.1606 -97.8131 306° West 437 503 34,000  Level Fort Worth Center
04:42PM 33.2475 -97.9550 307° West 442 509 34,000  Level Fort Worth Center
04:43PM 33.3200 -98.0697 309° West 442 509 34,000  Level Fort Worth Center
04:44PM 33.3864 -98.1697 306° West 437 503 34,000  Level Fort Worth Center
04:45PM 33.4586 -98.2875 307° West 437 503 34,000  Level Fort Worth Center
04:46PM 33.5308 -98.4028 305° West 437 503 34,000  Level Fort Worth Center
04:47PM 33.6089 -98.5383 306° West 451 519 34,000  Level Fort Worth Center
04:48PM 33.6808 -98.6567 306° West 444 511 34,000  Level Fort Worth Center
04:49PM 33.7425 -98.7597 307° West 433 498 34,000  Level Fort Worth Center
04:50PM 33.8161 -98.8761 307° West 433 498 34,000  Level Fort Worth Center
04:51PM 33.8878 -98.9922 307° West 433 498 34,000  Level Fort Worth Center
04:52PM 33.9594 -99.1089 306° West 433 498 34,000  Level Fort Worth Center
04:53PM 34.0308 -99.2256 306° West 433 498 34,000  Level Fort Worth Center
04:54PM 34.1042 -99.3475 306° West 438 504 34,000  Level Fort Worth Center
04:55PM 34.1894 -99.4900 306° West 438 504 34,000  Level Fort Worth Center
04:56PM 34.2606 -99.6097 306° West 438 504 34,000  Level Fort Worth Center
04:57PM 34.3314 -99.7272 305° West 433 498 34,000  Level Fort Worth Center
04:58PM 34.4000 -99.8472 305° West 433 498 34,000  Level Fort Worth Center
04:59PM 34.4706 -99.9678 306° West 433 498 34,000  Level Fort Worth Center
05:01PM 34.6228 -100.2236 304° West 426 490 34,000  Level Albuquerque Center
05:02PM 34.6997 -100.3608 307° West 432 497 34,000  Level Albuquerque Center
05:03PM 34.7781 -100.4881 305° West 432 497 34,000  Level Albuquerque Center
05:04PM 34.8475 -100.6089 306° West 432 497 34,000  Level Albuquerque Center
05:05PM 34.9167 -100.7272 304° West 432 497 34,000  Level Albuquerque Center
05:06PM 34.9839 -100.8483 305° West 432 497 34,000  Level Albuquerque Center
05:07PM 35.0528 -100.9672 305° West 432 497 34,000  Level Albuquerque Center
05:08PM 35.1217 -101.0861 305° West 427 491 34,000  Level Albuquerque Center
05:09PM 35.1906 -101.2053 304° West 427 491 34,000  Level Albuquerque Center
05:10PM 35.2594 -101.3297 305° West 427 491 34,000  Level Albuquerque Center
05:11PM 35.3281 -101.4494 304° West 427 491 34,000  Level Albuquerque Center
05:12PM 35.3944 -101.5719 306° West 428 493 34,000  Level Albuquerque Center
05:13PM 35.4694 -101.6967 303° West 443 510 34,000  Level Albuquerque Center
05:14PM 35.5267 -101.8050 305° West 449 517 34,000  Level Albuquerque Center
05:15PM 35.5972 -101.9303 304° West 449 517 34,000  Level Albuquerque Center
05:16PM 35.6653 -102.0536 305° West 449 517 34,000  Level Albuquerque Center
05:17PM 35.7356 -102.1792 303° West 449 517 34,000  Level Albuquerque Center
05:18PM 35.8033 -102.3056 304° West 449 517 34,000  Level Albuquerque Center
05:19PM 35.8736 -102.4344 304° West 449 517 34,000  Level Albuquerque Center
05:20PM 35.9433 -102.5608 305° West 449 517 34,000  Level Albuquerque Center
05:21PM 36.0150 -102.6875 302° West 449 517 34,000  Level Albuquerque Center
05:22PM 36.0828 -102.8197 306° West 449 517 34,000  Level Albuquerque Center
05:23PM 36.1564 -102.9467 304° West 449 517 34,000  Level Albuquerque Center
05:24PM 36.2258 -103.0767 304° West 449 517 34,000  Level Albuquerque Center
05:25PM 36.2947 -103.2019 303° West 449 517 34,000  Level Albuquerque Center
05:26PM 36.3619 -103.3297 304° West 442 509 34,000  Level Albuquerque Center
05:27PM 36.4308 -103.4581 303° West 448 516 34,000  Level Albuquerque Center
05:28PM 36.4975 -103.5839 303° West 443 510 34,000  Level Albuquerque Center
05:29PM 36.5661 -103.7150 303° West 448 516 34,000  Level Albuquerque Center
05:30PM 36.6325 -103.8411 303° West 448 516 34,000  Level Albuquerque Center
05:33PM 36.7956 -104.1517 304° West 433 498 34,000  Level Denver Center
05:34PM 36.8647 -104.2792 302° West 438 504 34,000  Level Denver Center
05:35PM 36.9361 -104.4197 303° West 443 510 34,000  Level Denver Center
05:36PM 37.0031 -104.5478 302° West 448 516 34,000  Level Denver Center
05:37PM 37.0675 -104.6761 303° West 448 516 34,000  Level Denver Center
05:38PM 37.1256 -104.7892 303° West 448 516 34,000  Level Denver Center
05:39PM 37.1983 -104.9308 302° West 448 516 34,000  Level Denver Center
05:40PM 37.2625 -105.0600 303° West 448 516 34,000  Level Denver Center
05:42PM 37.4163 -105.3590 302° West 429 494 34,000  Level FlightAware ADS-B
05:43PM 37.4919 -105.5090 302° West 426 490 34,000  Level FlightAware ADS-B
05:44PM 37.5414 -105.6080 302° West 426 490 34,000  Level FlightAware ADS-B
05:44PM 37.5738 -105.6730 302° West 424 488 34,000  Level FlightAware ADS-B
05:45PM 37.6050 -105.7350 302° West 421 484 34,000  Level FlightAware ADS-B
05:45PM 37.6364 -105.7980 302° West 421 484 34,000  Level FlightAware ADS-B
05:46PM 37.6675 -105.8600 302° West 420 483 34,000  Level FlightAware ADS-B
05:46PM 37.6991 -105.9240 302° West 420 483 34,000  Level FlightAware ADS-B
05:47PM 37.7306 -105.9880 302° West 420 483 34,000  Level FlightAware ADS-B
05:47PM 37.7616 -106.0510 302° West 419 482 34,000  Level FlightAware ADS-B
05:48PM 37.7926 -106.1130 302° West 420 483 34,000  Level FlightAware ADS-B
05:49PM 37.8512 -106.2330 302° West 420 483 34,000  Level FlightAware ADS-B
05:49PM 37.8823 -106.2960 302° West 419 482 34,000  Level FlightAware ADS-B
05:50PM 37.9135 -106.3600 302° West 420 483 34,000  Level FlightAware ADS-B
05:50PM 37.9444 -106.4230 302° West 420 483 34,000  Level FlightAware ADS-B
05:51PM 37.9754 -106.4870 302° West 421 484 34,000  Level FlightAware ADS-B
05:51PM 38.0062 -106.5500 302° West 420 483 34,000  Level FlightAware ADS-B
05:52PM 38.0421 -106.6240 302° West 421 484 34,000  Level FlightAware ADS-B
05:52PM 38.0727 -106.6870 302° West 421 484 34,000  Level FlightAware ADS-B
05:53PM 38.1090 -106.7620 301° West 421 484 34,000  Level FlightAware ADS-B
05:54PM 38.1406 -106.8280 300° West 422 486 34,000  Level FlightAware ADS-B
05:55PM 38.1936 -106.9431 302° West 427 491 34,000  Level Denver Center
05:56PM 38.2536 -107.0678 301° West 427 491 34,000  Level Denver Center
05:57PM 38.3092 -107.1847 301° West 427 491 34,000  Level Denver Center
05:58PM 38.3686 -107.3097 302° West 427 491 34,000  Level Denver Center
05:59PM 38.4364 -107.4483 300° West 421 484 34,000  Level Denver Center
06:00PM 38.4956 -107.5792 302° West 421 484 34,000  Level Denver Center
06:01PM 38.5508 -107.6942 301° West 421 484 34,000  Level Denver Center
06:02PM 38.6097 -107.8200 301° West 421 484 34,000  Level Denver Center
06:03PM 38.6728 -107.9569 301° West 415 478 34,000  Level Denver Center
06:04PM 38.7317 -108.0806 301° West 415 478 34,000  Level Denver Center
06:05PM 38.7842 -108.1936 300° West 415 478 34,000  Level Denver Center
06:06PM 38.8406 -108.3203 300° West 410 472 34,000  Level Denver Center
06:07PM 38.9028 -108.4581 301° West 410 472 34,000  Level Denver Center
06:08PM 38.9631 -108.5853 300° West 415 478 34,000  Level Denver Center
06:09PM 39.0192 -108.7100 303° West 410 472 34,000  Level Denver Center
06:10PM 39.0753 -108.8214 312° West 410 472 34,000  Level Denver Center
06:11PM 39.1622 -108.9450 311° West 416 479 34,000  Level Denver Center
06:12PM 39.2369 -109.0575 311° West 416 479 34,000  Level Denver Center
06:13PM 39.3117 -109.1675 312° West 416 479 34,000  Level Denver Center
06:14PM 39.3819 -109.2697 311° West 416 479 34,000  Level Denver Center
06:14PM 39.4586 -109.3828 311° West 420 483 34,000  Level Salt Lake Center
06:15PM 39.5322 -109.4933 311° West 420 483 34,000  Level Salt Lake Center
06:16PM 39.6064 -109.6047 311° West 423 487 34,000  Level Salt Lake Center
06:18PM 39.6919 -109.7342 311° West 422 486 34,000  Level Salt Lake Center
06:19PM 39.7661 -109.8444 311° West 422 486 34,000  Level Salt Lake Center
06:20PM 39.8514 -109.9736 310° West 421 484 34,000  Level Salt Lake Center
06:21PM 39.9242 -110.0853 311° West 421 484 34,000  Level Salt Lake Center
06:22PM 40.0092 -110.2150 310° West 421 484 34,000  Level Salt Lake Center
06:23PM 40.0814 -110.3267 310° West 421 484 34,000  Level Salt Lake Center
06:24PM 40.1661 -110.4567 311° West 420 483 34,000  Level Salt Lake Center
06:25PM 40.2397 -110.5694 310° West 423 487 34,000  Level Salt Lake Center
06:26PM 40.3153 -110.6869 310° West 428 493 34,000  Level Salt Lake Center
06:27PM 40.3931 -110.8083 310° West 430 495 34,000  Level Salt Lake Center
06:28PM 40.4842 -110.9517 310° West 434 499 34,000  Level Salt Lake Center
06:29PM 40.5619 -111.0733 310° West 431 496 34,000  Level Salt Lake Center
06:30PM 40.6403 -111.1964 310° West 434 499 34,000  Level Salt Lake Center
06:31PM 40.7175 -111.3186 310° West 432 497 34,000  Level Salt Lake Center
06:32PM 40.7950 -111.4411 310° West 432 497 34,000  Level Salt Lake Center
06:33PM 40.8719 -111.5644 310° West 432 497 34,000  Level Salt Lake Center
06:34PM 40.9494 -111.6886 309° West 434 499 34,000  Level Salt Lake Center
06:35PM 41.0325 -111.8231 309° West 433 498 34,000  Level Salt Lake Center
06:36PM 41.1103 -111.9486 309° West 435 501 34,000  Level Salt Lake Center
06:37PM 41.1869 -112.0739 309° West 435 501 34,000  Level Salt Lake Center
06:38PM 41.2642 -112.1997 309° West 436 502 34,000  Level Salt Lake Center
06:39PM 41.3425 -112.3278 309° West 441 507 34,000  Level Salt Lake Center
06:40PM 41.4197 -112.4556 309° West 440 506 34,000  Level Salt Lake Center
06:41PM 41.5114 -112.6056 309° West 443 510 34,000  Level Salt Lake Center
06:42PM 41.5892 -112.7358 309° West 445 512 34,000  Level Salt Lake Center
06:43PM 41.6675 -112.8642 308° West 443 510 34,000  Level Salt Lake Center
06:44PM 41.7450 -112.9953 309° West 444 511 34,000  Level Salt Lake Center
06:45PM 41.8236 -113.1272 309° West 448 516 34,000  Level Salt Lake Center
06:46PM 41.9025 -113.2600 309° West 450 518 34,000  Level Salt Lake Center
06:47PM 41.9817 -113.3933 308° West 451 519 34,000  Level Salt Lake Center
06:48PM 42.0597 -113.5261 308° West 450 518 34,000  Level Salt Lake Center
06:49PM 42.1503 -113.6828 308° West 451 519 34,000  Level Salt Lake Center
06:51PM 42.2292 -113.8172 308° West 452 520 34,000  Level Salt Lake Center
06:52PM 42.3072 -113.9506 308° West 450 518 34,000  Level Salt Lake Center
06:53PM 42.3844 -114.0856 308° West 450 518 34,000  Level Salt Lake Center
06:54PM 42.4633 -114.2236 307° West 456 525 34,000  Level Salt Lake Center
06:55PM 42.5394 -114.3586 308° West 449 517 34,000  Level Salt Lake Center
06:56PM 42.6169 -114.4944 308° West 451 519 34,000  Level Salt Lake Center
06:57PM 42.7014 -114.6442 308° West 451 519 34,000  Level Salt Lake Center
06:58PM 42.7747 -114.7744 308° West 452 520 34,000  Level Salt Lake Center
06:59PM 42.8611 -114.9269 307° West 454 522 34,000  Level Salt Lake Center
07:00PM 42.9339 -115.0578 307° West 453 521 34,000  Level Salt Lake Center
07:01PM 43.0181 -115.2092 307° West 449 517 34,000  Level Salt Lake Center
07:02PM 43.0894 -115.3386 307° West 446 513 34,000  Level Salt Lake Center
07:03PM 43.1728 -115.4900 306° West 445 512 34,000  Level Salt Lake Center
07:04PM 43.2433 -115.6211 307° West 446 513 34,000  Level Salt Lake Center
07:05PM 43.3144 -115.7508 306° West 444 511 34,000  Level Salt Lake Center
07:06PM 43.3972 -115.9050 307° West 447 514 34,000  Level Salt Lake Center
07:07PM 43.4683 -116.0372 306° West 448 516 34,000  Level Salt Lake Center
07:08PM 43.5508 -116.1931 295° West 449 517 34,000  Level Salt Lake Center
07:09PM 43.6008 -116.3403 294° West 441 507 34,000  Level Salt Lake Center
07:10PM 43.6578 -116.5147 294° West 443 510 34,000  Level Salt Lake Center
07:11PM 43.7056 -116.6619 295° West 439 505 34,000  Level Salt Lake Center
07:12PM 43.7619 -116.8336 294° West 437 503 34,000  Level Salt Lake Center
07:13PM 43.8097 -116.9814 294° West 438 504 34,000  Level Salt Lake Center
07:14PM 43.8578 -117.1317 294° West 442 509 34,000  Level Salt Lake Center
07:15PM 43.9142 -117.3069 294° West 444 511 34,000  Level Salt Lake Center
07:16PM 43.9622 -117.4575 294° West 445 512 34,000  Level Salt Lake Center
07:17PM 44.0178 -117.6333 301° West 445 512 34,000  Level Salt Lake Center
07:18PM 44.0797 -117.7767 303° West 451 519 34,000  Level Salt Lake Center
07:19PM 44.1553 -117.9408 303° West 450 518 34,000  Level Salt Lake Center
07:20PM 44.2194 -118.0789 302° West 444 511 34,000  Level Salt Lake Center
07:22PM 44.2925 -118.2414 301° West 442 509 34,000  Level Salt Lake Center
07:23PM 44.3569 -118.3903 285° West 441 507 34,000  Level Seattle Center
07:24PM 44.3889 -118.5533 287° West 435 501 34,000  Level Salt Lake Center
07:25PM 44.4253 -118.7158 288° West 439 505 34,000  Level Salt Lake Center
07:26PM 44.4619 -118.8739 300° West 433 498 34,000  Level Salt Lake Center
07:27PM 44.5336 -119.0450 301° West 432 497 34,000  Level Seattle Center
07:28PM 44.5933 -119.1869 301° West 428 493 34,000  Level Seattle Center
07:29PM 44.6539 -119.3292 301° West 428 493 34,000  Level Seattle Center
07:30PM 44.7147 -119.4711 301° West 428 493 34,000  Level Seattle Center
07:31PM 44.7858 -119.6403 301° West 424 488 34,000  Level Seattle Center
07:32PM 44.8572 -119.8094 300° West 420 483 34,000  Level Seattle Center
07:33PM 44.9150 -119.9492 301° West 419 482 34,000  Level Seattle Center
07:34PM 44.9814 -120.1039 301° West 421 484 34,000 -300 Level Seattle Center
07:35PM 45.0414 -120.2469 300° West 423 487 33,400 -780 Descending Seattle Center
07:36PM 45.0997 -120.3892 300° West 421 484 32,500 -1,620 Descending Seattle Center
07:37PM 45.1575 -120.5319 300° West 420 483 30,200 -2,160 Descending Seattle Center
07:38PM 45.2139 -120.6714 300° West 417 480 28,100 -2,100 Descending Seattle Center
07:39PM 45.2697 -120.8092 300° West 410 472 26,000 -2,040 Descending Seattle Center
07:40PM 45.3236 -120.9433 300° West 398 458 24,000 -1,980 Descending Seattle Center
07:41PM 45.3767 -121.0728 298° West 387 445 22,000 -2,160 Descending Seattle Center
07:42PM 45.4328 -121.2250 278° West 367 422 19,700 -2,340 Descending Seattle Center
07:43PM 45.4469 -121.3633 280° West 352 405 17,300 -2,400 Descending Seattle Center
07:44PM 45.4639 -121.4950 280° West 346 398 14,900 -2,040 Descending Seattle Center
07:45PM 45.4794 -121.6217 280° West 334 384 13,200 -1,740 Descending Seattle Center
07:46PM 45.4947 -121.7469 270° West 327 376 11,400 -1,560 Descending Seattle Center
07:47PM 45.4947 -121.8669 269° West 308 354 10,100 -1,560 Descending Seattle Center
07:48PM 45.4928 -121.9836 268° West 275 316 8,300 -1,320 Descending Seattle Center
07:49PM 45.4906 -122.0842 269° West 261 300 7,400 -1,020 Descending Seattle Center
07:51PM 45.4892 -122.1728 267° West 234 269 6,300 -840 Descending Seattle Center
07:52PM 45.4867 -122.2533 272° West 214 246 5,700 -900 Descending Seattle Center
07:53PM 45.4883 -122.3236 300° West 185 213 4,500 -1,380 Descending Seattle Center
07:54PM 45.5156 -122.3908 300° West 170 196 2,900 -1,620 Descending Seattle Center